Latest Weather Observations for Moruya Airport

IDN60801

Issued at 5:02 pm EST Saturday 24 June 2017 (issued every 30 minutes, with the page automatically refreshed every 10 minutes)

About weather observations | Map of weather stations | Latest weather observations for NSW | Other Formats
Station Details ID: 069148 Name: MORUYA AIRPORT AWS Lat: -35.90 Lon: 150.14 Height: 4.0 m
Data from the previous 72 hours. | See also: Recent months at Moruya Airport
Date/Time
EST
Temp
°C
App
Temp
°C
Dew
Point
°C
Rel
Hum
%
Delta-T
°C
Wind Press
QNH
hPa
Press
MSL
hPa
Rain since
9am
mm
Dir  Spd
km/h
Gust
km/h
Spd
kts
Gust
kts
24/05:00pm 12.9 10.7 6.0 63 3.3 SSE 7 9 4 5 1015.9 1015.9 0.0
24/04:30pm 13.5 10.1 6.1 61 3.5 SSE 13 17 7 9 1015.7 1015.7 0.0
24/04:00pm 13.7 10.3 6.1 60 3.6 SSE 13 20 7 11 1015.5 1015.5 0.0
24/03:30pm 13.9 10.4 5.5 57 4.0 SSE 13 20 7 11 1015.3 1015.3 0.0
24/03:00pm 14.1 9.9 5.7 57 4.0 SSE 17 24 9 13 1015.1 1015.1 0.0
24/02:30pm 14.2 9.6 5.8 57 4.0 SSE 19 24 10 13 1014.9 1014.9 0.0
24/02:00pm 14.6 10.4 5.9 56 4.1 SE 17 24 9 13 1014.8 1014.8 0.0
24/01:30pm 15.3 11.0 6.8 57 4.2 SE 19 26 10 14 1014.8 1014.8 0.0
24/01:00pm 15.0 10.5 6.0 55 4.3 SSE 19 26 10 14 1015.1 1015.1 0.0
24/12:30pm 15.6 11.4 5.5 51 4.8 SSE 17 20 9 11 1015.2 1015.2 0.0
24/12:00pm 15.5 11.9 4.8 49 5.0 SE 13 17 7 9 1015.3 1015.3 0.0
24/11:30am 15.6 12.8 5.2 50 4.9 SSE 9 13 5 7 1015.6 1015.6 0.0
24/11:00am 15.1 12.3 6.9 58 4.0 SSE 11 17 6 9 1016.0 1016.0 0.0
24/10:30am 14.5 11.6 6.3 58 3.9 SW 11 15 6 8 1016.2 1016.2 0.0
24/10:00am 14.2 10.8 5.8 57 4.0 SW 13 19 7 10 1016.3 1016.3 0.0
24/09:30am 13.1 9.9 5.0 58 3.7 WNW 11 15 6 8 1015.8 1015.8 0.0
24/09:00am 11.2 8.8 5.1 66 2.8 WSW 7 13 4 7 1015.6 1015.6 0.0
24/08:30am 10.0 7.6 5.2 72 2.2 W 7 11 4 6 1015.2 1015.2 0.0
24/08:00am 7.3 4.3 4.3 81 1.3 WSW 9 13 5 7 1014.7 1014.7 0.0
24/07:30am 5.9 2.8 3.6 85 1.0 WSW 9 11 5 6 1014.3 1014.3 0.0
24/07:00am 4.6 1.4 2.9 89 0.7 WSW 9 15 5 8 1013.9 1013.9 0.0
24/06:30am 4.8 1.4 3.8 93 0.4 SW 11 17 6 9 1013.3 1013.3 0.0
24/06:00am 3.8 1.1 2.6 92 0.5 WNW 6 7 3 4 1012.8 1012.8 0.0
24/05:30am 4.2 1.3 2.6 89 0.6 WSW 7 11 4 6 1012.7 1012.7 0.0
24/05:00am 3.8 0.8 2.2 89 0.6 WSW 7 9 4 5 1012.4 1012.4 0.0
24/04:30am 5.7 2.9 3.0 83 1.1 WSW 7 9 4 5 1012.2 1012.2 0.0
24/04:00am 6.0 2.7 4.6 91 0.6 WNW 11 13 6 7 1012.1 1012.1 0.0
24/03:30am 3.0 0.2 2.3 95 0.3 SW 6 9 3 5 1012.2 1012.2 0.0
24/03:00am 3.4 0.5 2.7 95 0.3 WSW 7 11 4 6 1012.4 1012.4 0.0
24/02:30am 3.2 1.2 2.5 95 0.3 W 2 7 1 4 1012.4 1012.4 0.0
24/02:00am 2.5 -0.4 1.5 93 0.4 WNW 6 9 3 5 1012.0 1012.0 0.0
24/01:30am 3.4 0.5 2.4 93 0.4 WNW 7 9 4 5 1012.2 1012.2 0.0
24/01:00am 4.1 1.5 3.1 93 0.4 SSW 6 9 3 5 1012.2 1012.2 0.0
24/12:30am 3.7 1.7 2.4 91 0.5 SSW 2 6 1 3 1012.6 1012.6 0.0
24/12:00am 4.0 1.6 2.2 88 0.7 W 4 11 2 6 1012.4 1012.4 0.0
 
Date/Time
EST
Temp
°C
App
Temp
°C
Dew
Point
°C
Rel
Hum
%
Delta-T
°C
Wind Press
QNH
hPa
Press
MSL
hPa
Rain since
9am
mm
Dir  Spd
km/h
Gust
km/h
Spd
kts
Gust
kts
23/11:30pm 5.2 2.5 2.6 83 1.1 W 6 9 3 5 1012.6 1012.6 0.0
23/11:00pm 7.1 4.4 3.5 78 1.5 WSW 7 13 4 7 1012.7 1012.7 0.0
23/10:30pm 7.3 4.7 3.2 75 1.7 W 6 7 3 4 1012.9 1012.9 0.0
23/10:00pm 9.0 5.9 3.4 68 2.4 WSW 9 13 5 7 1013.0 1013.0 0.0
23/09:30pm 9.6 6.5 3.4 65 2.7 W 9 13 5 7 1012.8 1012.8 0.0
23/09:00pm 10.0 6.8 2.8 61 3.1 WSW 9 13 5 7 1012.8 1012.8 0.0
23/08:30pm 12.4 8.7 2.6 51 4.3 WNW 11 15 6 8 1012.3 1012.3 0.0
23/08:00pm 13.0 9.3 2.6 49 4.6 WNW 11 17 6 9 1012.8 1012.8 0.0
23/07:30pm 13.3 9.2 2.5 48 4.7 WNW 13 20 7 11 1012.7 1012.7 0.0
23/07:00pm 11.3 8.4 4.5 63 3.1 W 9 13 5 7 1012.2 1012.2 0.0
23/06:30pm 8.5 7.5 7.3 92 0.6 SW 2 6 1 3 1012.3 1012.3 0.0
23/06:00pm 9.2 7.6 8.0 92 0.6 SW 6 9 3 5 1012.4 1012.4 0.0
23/05:30pm 9.4 7.5 7.5 88 0.9 SW 7 9 4 5 1012.3 1012.3 0.0
23/05:00pm 10.9 9.7 8.0 82 1.4 SW 4 6 2 3 1012.5 1012.5 0.0
23/04:30pm 12.8 12.1 8.5 75 2.1 NNW 2 7 1 4 1012.6 1012.6 0.0
23/04:00pm 14.5 13.0 8.5 67 3.0 NE 6 9 3 5 1012.8 1012.8 0.0
23/03:30pm 13.2 11.6 7.9 70 2.6 NE 6 7 3 4 1013.2 1013.2 0.0
23/03:00pm 14.7 12.7 6.3 57 4.0 NE 6 7 3 4 1013.4 1013.4 0.0
23/02:30pm 14.6 11.5 5.4 54 4.3 NE 11 11 6 6 1013.4 1013.4 0.0
23/02:00pm 14.3 12.0 5.7 56 4.1 NE 7 11 4 6 1013.8 1013.8 0.0
23/01:30pm 15.6 13.0 6.3 54 4.5 ENE 9 13 5 7 1014.0 1014.0 0.0
23/01:00pm 15.3 12.5 6.8 57 4.2 ENE 11 13 6 7 1014.3 1014.3 0.0
23/12:30pm 14.7 11.4 4.7 51 4.7 ENE 11 15 6 8 1015.0 1015.0 0.0
23/12:00pm 15.0 11.7 4.4 49 4.9 ENE 11 13 6 7 1015.6 1015.6 0.0
23/11:30am 15.1 12.6 3.6 46 5.2 ESE 6 9 3 5 1016.7 1016.7 0.0
23/11:00am 13.9 12.2 3.9 51 4.5 SSW 2 7 1 4 1017.4 1017.4 0.0
23/10:30am 12.6 10.4 5.5 62 3.3 SW 6 9 3 5 1018.1 1018.1 0.0
23/10:00am 11.3 8.8 5.0 65 2.9 WSW 7 11 4 6 1018.7 1018.7 0.0
23/09:30am 9.6 6.9 5.8 77 1.7 SW 9 11 5 6 1019.0 1019.0 0.0
23/09:00am 8.0 5.7 5.5 84 1.1 SW 7 11 4 6 1019.2 1019.2 0.0
23/08:30am 6.5 4.1 5.3 92 0.5 WSW 7 11 4 6 1019.2 1019.2 0.0
23/08:09am 5.2 4.0 4.5 95 0.3 CALM 0 6 0 3 1019.3 1019.3 0.0
23/08:00am 4.5 3.1 3.8 95 0.3 CALM 0 6 0 3 1019.4 1019.4 0.0
23/07:30am 3.7 2.2 3.1 96 0.2 CALM 0 0 0 0 1019.4 1019.4 0.0
23/07:20am 3.2 1.6 2.5 95 0.3 CALM 0 6 0 3 1019.4 1019.4 0.0
23/07:00am 3.4 0.1 2.7 95 0.3 SW 9 11 5 6 1019.3 1019.3 0.0
23/06:54am 3.2 -0.1 2.5 95 0.3 SW 9 11 5 6 1019.4 1019.4 0.0
23/06:30am 3.5 0.8 2.9 96 0.2 WSW 6 7 3 4 1019.3 1019.3 0.0
23/06:29am 3.5 0.8 2.9 96 0.2 WSW 6 7 3 4 1019.4 1019.4 0.0
23/06:28am 3.5 0.8 2.9 96 0.2 WSW 6 7 3 4 1019.4 1019.4 0.0
23/06:00am 3.8 1.6 3.2 96 0.2 WSW 4 6 2 3 1019.1 1019.1 0.0
23/05:37am 4.1 2.7 3.5 96 0.2 CALM 0 6 0 3 1019.2 1019.2 0.0
23/05:30am 4.1 1.6 3.5 96 0.2 W 6 7 3 4 1019.3 1019.3 0.0
23/05:10am 4.6 2.1 4.0 96 0.3 WNW 6 9 3 5 1019.3 1019.3 0.0
23/05:00am 4.2 1.5 3.6 96 0.2 WNW 7 9 4 5 1019.3 1019.3 0.0
23/04:30am 4.4 2.7 3.8 96 0.2 WSW 2 7 1 4 1019.6 1019.6 0.0
23/04:00am 4.3 1.8 3.7 96 0.2 W 6 7 3 4 1020.0 1020.0 0.0
23/03:30am 5.1 2.6 4.5 96 0.3 NW 7 9 4 5 1020.3 1020.3 0.0
23/03:00am 4.5 3.1 3.8 95 0.3 CALM 0 0 0 0 1020.8 1020.8 0.0
23/02:30am 5.6 4.5 4.9 95 0.3 CALM 0 0 0 0 1020.9 1020.9 0.0
23/02:00am 5.3 4.1 4.4 94 0.4 CALM 0 6 0 3 1021.1 1021.1 0.0
23/01:35am 6.3 4.9 5.6 95 0.3 W 2 6 1 3 1021.2 1021.2 0.0
23/01:30am 6.4 5.0 5.7 95 0.3 W 2 4 1 2 1021.2 1021.2 0.0
23/01:09am 6.9 4.9 6.2 95 0.3 W 6 7 3 4 1021.3 1021.3 0.0
23/01:00am 7.1 5.9 6.4 95 0.3 W 2 6 1 3 1021.4 1021.4 0.0
23/12:30am 7.2 5.2 6.3 94 0.4 W 6 7 3 4 1021.6 1021.6 0.0
23/12:00am 7.5 5.6 6.6 94 0.4 WSW 6 7 3 4 1021.9 1021.9 0.0
 
Date/Time
EST
Temp
°C
App
Temp
°C
Dew
Point
°C
Rel
Hum
%
Delta-T
°C
Wind Press
QNH
hPa
Press
MSL
hPa
Rain since
9am
mm
Dir  Spd
km/h
Gust
km/h
Spd
kts
Gust
kts
22/11:30pm 7.6 5.6 6.4 92 0.5 WSW 6 7 3 4 1022.6 1022.6 0.0
22/11:21pm 8.1 6.1 7.0 93 0.5 W 7 7 4 4 1022.8 1022.8 0.0
22/11:16pm 8.3 6.5 7.2 93 0.5 W 6 7 3 4 1022.9 1022.9 0.0
22/11:00pm 8.5 7.9 7.3 92 0.6 CALM 0 6 0 3 1023.1 1023.1 0.0
22/10:53pm 8.3 6.8 6.9 91 0.6 W 4 6 2 3 1023.1 1023.1 0.0
22/10:30pm 9.6 8.0 8.2 91 0.7 W 6 9 3 5 1023.2 1023.2 0.0
22/10:00pm 9.7 8.1 8.6 93 0.5 W 7 11 4 6 1023.5 1023.5 0.0
22/09:30pm 8.5 6.5 7.3 92 0.6 W 7 9 4 5 1023.7 1023.7 0.0
22/09:00pm 9.3 8.8 7.9 91 0.7 CALM 0 0 0 0 1023.7 1023.7 0.0
22/08:30pm 10.0 9.6 8.4 90 0.8 CALM 0 0 0 0 1024.0 1024.0 0.0
22/08:00pm 11.0 10.8 9.1 88 0.9 CALM 0 0 0 0 1024.2 1024.2 0.0
22/07:30pm 11.3 10.4 9.2 87 1.0 NNW 4 6 2 3 1024.4 1024.4 0.0
22/07:00pm 11.6 10.3 9.3 86 1.1 NNW 6 7 3 4 1024.2 1024.2 0.0
22/06:30pm 12.2 10.8 9.6 84 1.3 NNW 7 9 4 5 1024.1 1024.1 0.0
22/06:00pm 12.2 10.9 9.2 82 1.5 NNW 6 9 3 5 1024.0 1024.0 0.0
22/05:30pm 13.3 11.3 8.8 74 2.3 N 9 13 5 7 1023.9 1023.9 0.0
22/05:00pm 14.5 11.9 9.5 72 2.6 NE 13 17 7 9 1023.8 1023.8 0.0
22/04:30pm 14.3 11.2 8.9 70 2.7 NE 15 20 8 11 1023.7 1023.7 0.0
22/04:00pm 14.8 11.9 8.3 65 3.2 NE 13 20 7 11 1023.9 1023.9 0.0
22/03:30pm 15.7 12.1 8.2 61 3.8 ENE 17 22 9 12 1024.0 1024.0 0.0
22/03:00pm 16.2 12.6 8.4 60 3.9 NE 17 20 9 11 1023.9 1023.9 0.0
22/02:30pm 16.1 12.2 8.6 61 3.8 NE 19 24 10 13 1024.1 1024.1 0.0
22/02:00pm 16.5 12.9 8.2 58 4.2 NE 17 20 9 11 1024.3 1024.3 0.0
22/01:30pm 16.5 13.2 8.0 57 4.3 NE 15 19 8 10 1024.4 1024.4 0.0
22/01:00pm 16.4 12.8 8.4 59 4.0 ENE 17 20 9 11 1024.9 1024.9 0.0
22/12:30pm 16.1 12.8 6.3 52 4.8 NNE 13 19 7 10 1025.5 1025.5 0.0
22/12:00pm 16.4 14.1 7.3 55 4.5 NE 9 13 5 7 1026.3 1026.3 0.0
22/11:30am 15.6 13.3 7.6 59 4.0 ENE 9 11 5 6 1027.0 1027.0 0.0
22/11:00am 15.8 14.0 8.1 60 3.9 WSW 7 9 4 5 1027.6 1027.6 0.0
22/10:30am 15.1 13.0 6.7 57 4.1 NW 7 11 4 6 1028.0 1028.0 0.0
22/10:00am 13.4 11.7 8.3 71 2.5 SSW 7 9 4 5 1028.5 1028.5 0.0
22/09:30am 11.7 9.9 8.0 78 1.8 SW 7 9 4 5 1028.5 1028.5 0.0
22/09:00am 10.4 8.7 7.5 82 1.4 W 6 9 3 5 1028.6 1028.6 0.2
22/08:30am 8.7 8.1 7.5 92 0.6 CALM 0 0 0 0 1028.6 1028.6 0.2
22/08:00am 7.2 5.2 6.3 94 0.4 WSW 6 7 3 4 1028.6 1028.6 0.2
22/07:30am 6.2 3.9 5.5 95 0.3 SW 7 9 4 5 1028.5 1028.5 0.2
22/07:00am 6.6 4.5 5.9 95 0.3 WSW 6 7 3 4 1028.4 1028.4 0.2
22/06:30am 6.5 4.4 5.6 94 0.4 WSW 6 7 3 4 1028.2 1028.2 0.2
22/06:00am 6.7 4.6 5.7 93 0.4 W 6 7 3 4 1027.9 1027.9 0.2
22/05:30am 7.5 6.7 6.4 93 0.5 CALM 0 6 0 3 1027.6 1027.6 0.2
22/05:00am 7.9 6.4 6.7 92 0.5 WSW 4 6 2 3 1027.7 1027.7 0.2
22/04:30am 8.3 6.4 6.8 90 0.7 WSW 6 9 3 5 1027.6 1027.6 0.2
22/04:00am 7.9 5.8 6.8 93 0.5 WSW 7 11 4 6 1027.6 1027.6 0.2
22/03:30am 7.9 6.0 6.8 93 0.5 SW 6 7 3 4 1027.9 1027.9 0.2
22/03:00am 7.9 6.0 6.8 93 0.5 W 6 7 3 4 1028.0 1028.0 0.2
22/02:30am 7.5 5.3 6.1 91 0.6 WSW 7 9 4 5 1028.0 1028.0 0.2
22/02:00am 8.6 6.8 7.2 91 0.7 SW 6 7 3 4 1028.1 1028.1 0.2
22/01:30am 8.9 7.1 7.0 88 0.9 SSW 6 9 3 5 1028.2 1028.2 0.2
22/01:00am 9.3 7.0 7.4 88 0.9 W 9 13 5 7 1028.4 1028.4 0.2
22/12:30am 9.1 7.3 7.2 88 0.9 W 6 7 3 4 1028.5 1028.5 0.2
22/12:00am 9.6 7.6 7.2 85 1.1 W 7 9 4 5 1028.5 1028.5 0.2
 
Date/Time
EST
Temp
°C
App
Temp
°C
Dew
Point
°C
Rel
Hum
%
Delta-T
°C
Wind Press
QNH
hPa
Press
MSL
hPa
Rain since
9am
mm
Dir  Spd
km/h
Gust
km/h
Spd
kts
Gust
kts
21/11:30pm 9.8 7.2 7.7 87 1.0 WSW 11 13 6 7 1028.7 1028.7 0.2
21/11:00pm 9.2 7.3 7.6 90 0.8 WSW 7 9 4 5 1028.9 1028.9 0.2
21/10:30pm 9.2 7.3 7.5 89 0.8 WSW 7 9 4 5 1029.0 1029.0 0.2
21/10:00pm 9.7 8.0 7.5 86 1.0 WSW 6 9 3 5 1029.0 1029.0 0.2
21/09:30pm 9.4 7.2 7.8 90 0.8 WSW 9 11 5 6 1028.8 1028.8 0.2
21/09:00pm 8.9 7.9 7.5 91 0.7 WNW 2 7 1 4 1028.6 1028.6 0.2
21/08:30pm 9.0 8.0 7.5 90 0.7 W 2 7 1 4 1028.5 1028.5 0.2
21/08:00pm 9.3 7.6 7.7 90 0.8 WNW 6 9 3 5 1028.6 1028.6 0.2
21/07:30pm 9.5 7.8 7.6 88 0.9 W 6 7 3 4 1028.4 1028.4 0.2
21/07:00pm 9.9 8.1 8.0 88 0.9 W 7 9 4 5 1028.3 1028.3 0.2
21/06:30pm 9.2 7.9 7.5 89 0.8 ESE 4 7 2 4 1028.1 1028.1 0.2
21/06:00pm 9.0 8.4 7.3 89 0.8 CALM 0 0 0 0 1027.6 1027.6 0.2
21/05:30pm 9.2 8.5 6.8 85 1.1 CALM 0 0 0 0 1027.2 1027.2 0.2

Other Formats:

Comma delimited format used in spreadsheet applications
http://www.bom.gov.au/fwo/IDN60801/IDN60801.95937.axf

JavaScript Object Notation format (JSON) in row-major order
http://www.bom.gov.au/fwo/IDN60801/IDN60801.95937.json